Terminal Aerodrome Forecast
Issued by NWS Indianapolis, IN

Home | Current Version | Previous Version | Text Only | Print | Product List | Glossary On
Versions: 1 2 3 4 5 6 7 8 9 10 11 12 13 14 15 16 17 18 19 20 21 22 23 24 25 26 27
000
FTUS43 KIND 081720
TAFIND
TAF
KIND 081720Z 0818/0924 30016G25KT 3SM -SHSN SCT009 OVC015
      TEMPO 0818/0822 1 1/2SM -SHSN BR
     FM090000 28012G19KT P6SM VCSH SCT015 OVC025
     FM090900 28014G22KT 3SM -SHSN BR OVC015=

USA.gov is the U.S. government's official web portal to all federal, state and local government web resources and services.